Portada
METAR-TAF:

METAR-TAF

Aeroports :

Kostanay, Kazakhstan

latitud: 53-12-23N, longitud: 063-33-03E, altitud: 182 m

Observació

L'informe es va fer fa 23 minuts, a les 01:00 UTC
Vent 4 kt del Sud
Temperatura 22°C
Humitat 53%
Pressió 1011 hPa
Visibilitat 10 km o més
Escasses núvols a una alçada de 3300 ft, Cumulonimbus.

METAR: UAUU 200100Z 19002MPS 9999 FEW033CB 22/12 Q1011 NOSIG RMK QFE743/0991

Hora: 07:23 (01:23 UTC)

Pronòstic

L'informe es va fer fa 2 hores i 23 minuts, a les 23:00 UTC
Pronòstic vàlid del 20 a les 00 UTC al 20 a les 09 UTC
Vent 6 kt del Sud
Visibilitat 10 km o més
Núvols disperses a una alçada de 3000 ft, Cumulonimbus.
Temporalment
l' 20 a les 06 UTC al 20 a les 09 UTC
Vent 12 kt del Est
Cel ennuvolat a una alçada de 3000 ft, Cumulonimbus.
tempesta, pluja

TAF: UAUU 192300Z 2000/2009 17003MPS 9999 SCT030CB TEMPO 2006/2009 09006MPS -TSRA BKN030CB

Observacions i pronòstics meteorològics de més de 4000 aeroports (METAR i TAF).

Les estacions disponibles són els punts grocs i vermells al mapa.

Posi el ratolí al punt desitjat per veure el nom de l'estació.

Feu clic per veure les observacions i els pronòstics meteorològics.

Per canviar el mapa: feu clic els botons verds amb una creu de color negre per apropar; al botó verd amb un guió per allunyar la imatge; o en les fletxes verdes per a mapes adjacents.


METAR-TAF: